Time;durP1;ratioP1;P1;durP2;ratioP2;P2;SDS_P1;SDS_P2;PMS_P1;PMS_P2;Temp;Humidity;BMP_temperature;BMP_pressure;BME280_temperature;BME280_humidity;BME280_pressure;Samples;Min_cycle;Max_cycle;Signal;HPM_P1;HPM_P2
2023/04/04 00:00:14;;;;;;;2.07;1.70;;;;;;;19.36;48.67;98261.13;4975268;28;20231;-89
2023/04/04 00:02:40;;;;;;;4.60;2.40;;;;;;;19.13;48.92;98218.31;4940820;28;20621;-90
2023/04/04 00:05:08;;;;;;;4.27;1.97;;;;;;;19.10;48.83;98205.41;4923178;29;20223;-89
2023/04/04 00:07:35;;;;;;;2.17;1.70;;;;;;;19.14;48.55;98209.84;4941923;28;20679;-89
2023/04/04 00:10:01;;;;;;;2.40;1.80;;;;;;;19.16;48.99;98221.00;4958126;28;20618;-89
2023/04/04 00:12:28;;;;;;;2.10;1.83;;;;;;;19.15;48.51;98209.94;4923832;28;20228;-89
2023/04/04 00:14:56;;;;;;;2.40;1.70;;;;;;;19.02;48.31;98192.28;4941984;28;20303;-89
2023/04/04 00:17:22;;;;;;;3.00;1.83;;;;;;;19.29;49.02;98233.56;4923334;29;20580;-89
2023/04/04 00:19:49;;;;;;;4.20;2.10;;;;;;;19.27;48.78;98232.66;4941517;28;20844;-90
2023/04/04 00:22:17;;;;;;;2.10;1.70;;;;;;;19.18;48.75;98211.75;4957605;28;20786;-89
2023/04/04 00:24:43;;;;;;;1.90;1.70;;;;;;;19.32;49.06;98239.69;4926127;28;20204;-89
2023/04/04 00:27:10;;;;;;;2.67;1.80;;;;;;;19.12;48.70;98204.69;4957849;28;20677;-89
2023/04/04 00:29:36;;;;;;;2.27;1.80;;;;;;;19.29;49.05;98228.47;4939586;28;20210;-89
2023/04/04 00:32:03;;;;;;;2.20;1.70;;;;;;;19.27;48.84;98225.00;4922991;29;20294;-89
2023/04/04 00:34:30;;;;;;;2.30;1.87;;;;;;;19.20;48.77;98208.50;4952503;28;20208;-90
2023/04/04 00:36:57;;;;;;;3.10;1.93;;;;;;;19.22;48.80;98208.56;4941346;28;20248;-89
2023/04/04 00:39:25;;;;;;;3.70;1.73;;;;;;;19.25;48.72;98208.72;4974603;28;20210;-89
2023/04/04 00:41:51;;;;;;;3.00;1.80;;;;;;;19.07;48.98;98172.13;4923138;28;20234;-89
2023/04/04 00:44:18;;;;;;;1.70;1.50;;;;;;;19.06;48.74;98168.72;4922798;29;20208;-89
2023/04/04 00:46:45;;;;;;;1.70;1.60;;;;;;;19.18;48.93;98192.25;4941404;28;20242;-90
2023/04/04 00:49:11;;;;;;;3.00;1.60;;;;;;;18.96;49.04;98163.09;4926472;29;20294;-89
2023/04/04 00:51:38;;;;;;;2.90;1.80;;;;;;;19.19;48.66;98191.44;4942123;28;20671;-90
2023/04/04 00:54:05;;;;;;;2.73;1.80;;;;;;;19.14;49.41;98185.25;4945203;28;20204;-90
2023/04/04 00:56:32;;;;;;;2.93;1.90;;;;;;;19.22;49.09;98199.22;4977931;28;20306;-89
2023/04/04 00:58:58;;;;;;;2.57;1.80;;;;;;;19.33;48.88;98215.97;4928876;28;20299;-89
2023/04/04 01:01:25;;;;;;;2.60;1.93;;;;;;;19.16;49.09;98183.63;4927416;28;20219;-89
2023/04/04 01:03:52;;;;;;;2.00;1.73;;;;;;;19.22;49.12;98183.09;4944049;28;20203;-90
2023/04/04 01:06:19;;;;;;;2.13;1.53;;;;;;;19.13;48.90;98172.44;4945435;28;20660;-89
2023/04/04 01:08:45;;;;;;;1.80;1.53;;;;;;;19.29;49.12;98197.88;4959845;28;20203;-89
2023/04/04 01:11:12;;;;;;;3.70;1.60;;;;;;;19.09;48.89;98162.88;4924147;29;20236;-89
2023/04/04 01:13:39;;;;;;;1.90;1.47;;;;;;;19.21;48.95;98187.28;4957014;28;20255;-88
2023/04/04 01:16:05;;;;;;;2.83;1.70;;;;;;;19.27;49.14;98192.72;4960675;28;20594;-89
2023/04/04 01:18:32;;;;;;;2.37;1.73;;;;;;;19.07;48.80;98155.16;4960531;28;20271;-89
2023/04/04 01:21:03;;;;;;;1.97;1.60;;;;;;;19.33;48.96;98190.47;4928743;28;20234;-89
2023/04/04 01:23:51;;;;;;;4.20;1.67;;;;;;;19.33;49.08;98193.00;4961017;28;20220;-89
2023/04/04 01:26:20;;;;;;;1.83;1.40;;;;;;;19.27;48.95;98177.44;4960792;28;20208;-90
2023/04/04 01:28:47;;;;;;;2.23;1.90;;;;;;;19.27;48.85;98174.88;4926596;28;20740;-89
2023/04/04 01:31:13;;;;;;;2.10;1.70;;;;;;;19.12;48.39;98155.38;4978042;28;20207;-89
2023/04/04 01:33:45;;;;;;;2.63;1.70;;;;;;;19.10;49.12;98147.66;4957634;28;20227;-89
2023/04/04 01:36:23;;;;;;;1.57;1.47;;;;;;;19.22;49.06;98162.69;4925428;28;20216;-89
2023/04/04 01:38:57;;;;;;;2.20;1.80;;;;;;;19.32;48.90;98176.00;4924770;28;20207;-89
2023/04/04 01:41:24;;;;;;;2.63;1.80;;;;;;;19.15;48.92;98143.69;4935725;29;20291;-89
2023/04/04 01:43:51;;;;;;;1.73;1.60;;;;;;;19.12;48.90;98147.75;4942903;28;20232;-89
2023/04/04 01:46:18;;;;;;;2.53;1.60;;;;;;;19.19;49.37;98154.91;4923904;28;20212;-89
2023/04/04 01:48:45;;;;;;;2.10;1.70;;;;;;;19.09;49.28;98130.66;4958857;28;20223;-90
2023/04/04 01:51:12;;;;;;;1.80;1.70;;;;;;;19.32;49.20;98170.88;4928309;28;20246;-89
2023/04/04 01:53:38;;;;;;;2.87;1.73;;;;;;;18.97;49.46;98108.78;4924974;29;20248;-90
2023/04/04 01:56:05;;;;;;;2.13;1.60;;;;;;;19.16;49.14;98140.31;4960170;28;20207;-89
2023/04/04 01:58:32;;;;;;;2.43;1.70;;;;;;;19.04;48.94;98123.59;4960404;28;20262;-89
2023/04/04 02:00:58;;;;;;;1.83;1.50;;;;;;;19.20;49.04;98157.53;4959596;28;20227;-89
2023/04/04 02:03:25;;;;;;;1.73;1.60;;;;;;;19.07;48.85;98128.84;4923776;29;20231;-89
2023/04/04 02:05:52;;;;;;;1.63;1.53;;;;;;;19.14;48.74;98143.59;4975775;28;20238;-89
2023/04/04 02:08:19;;;;;;;3.30;1.50;;;;;;;19.02;48.78;98122.63;4934085;28;20294;-89
2023/04/04 02:10:46;;;;;;;2.23;1.77;;;;;;;18.75;48.89;98081.44;4943342;28;20608;-89
2023/04/04 02:13:12;;;;;;;2.00;1.50;;;;;;;19.09;48.97;98145.94;4917511;29;20228;-89
2023/04/04 02:15:39;;;;;;;2.40;1.80;;;;;;;19.04;48.96;98128.69;4944595;28;20226;-89
2023/04/04 02:18:06;;;;;;;2.63;1.77;;;;;;;19.05;49.17;98131.31;4959068;28;20207;-89
2023/04/04 02:20:32;;;;;;;1.73;1.63;;;;;;;19.11;49.36;98144.34;4927839;28;20208;-89
2023/04/04 02:22:59;;;;;;;2.13;1.70;;;;;;;19.08;49.28;98136.56;4976319;28;20255;-89
2023/04/04 02:25:26;;;;;;;1.80;1.60;;;;;;;19.02;49.25;98122.63;4928137;28;20210;-89
2023/04/04 02:27:53;;;;;;;2.03;1.80;;;;;;;18.96;49.03;98112.16;4974474;28;20299;-89
2023/04/04 02:30:20;;;;;;;1.93;1.60;;;;;;;19.23;49.08;98161.88;4927785;28;20235;-89
2023/04/04 02:32:47;;;;;;;2.10;1.67;;;;;;;19.11;49.30;98143.47;4927227;28;20227;-89
2023/04/04 02:35:15;;;;;;;3.40;1.53;;;;;;;19.17;49.17;98149.72;4924560;28;20239;-89
2023/04/04 02:37:44;;;;;;;2.30;1.73;;;;;;;19.28;49.25;98174.09;4928534;28;20232;-89
2023/04/04 02:40:11;;;;;;;2.03;1.77;;;;;;;19.16;49.17;98155.59;4942414;28;20206;-89
2023/04/04 02:42:43;;;;;;;2.27;1.60;;;;;;;19.12;49.12;98150.28;4942966;28;20232;-89
2023/04/04 02:45:10;;;;;;;2.47;1.83;;;;;;;19.28;49.11;98178.31;4927512;28;20231;-89
2023/04/04 02:47:37;;;;;;;2.27;1.70;;;;;;;18.95;49.36;98115.50;4941965;28;20200;-89
2023/04/04 02:50:04;;;;;;;1.50;1.40;;;;;;;19.02;49.13;98131.16;4958596;28;20212;-90
2023/04/04 02:52:31;;;;;;;1.63;1.53;;;;;;;19.16;49.08;98154.75;4924030;29;20287;-89
2023/04/04 02:54:58;;;;;;;2.07;1.73;;;;;;;19.16;49.56;98157.31;4956999;28;20231;-89
2023/04/04 02:57:25;;;;;;;1.93;1.37;;;;;;;19.20;49.61;98161.75;4924151;29;20300;-90
2023/04/04 02:59:51;;;;;;;1.60;1.50;;;;;;;19.21;49.39;98161.81;4941108;28;20216;-89
2023/04/04 03:02:18;;;;;;;2.17;1.70;;;;;;;19.08;49.52;98145.84;4974056;28;20234;-89
2023/04/04 03:04:45;;;;;;;2.13;1.63;;;;;;;19.06;49.21;98138.13;4942543;28;20255;-89
2023/04/04 03:07:11;;;;;;;2.27;1.50;;;;;;;19.13;49.03;98152.91;4943565;28;20210;-89
2023/04/04 03:09:38;;;;;;;2.57;1.93;;;;;;;19.16;49.04;98157.31;4956107;28;20278;-89
2023/04/04 03:12:05;;;;;;;1.53;1.40;;;;;;;19.17;49.33;98157.38;4975196;28;20331;-89
2023/04/04 03:14:31;;;;;;;1.90;1.70;;;;;;;19.10;49.29;98150.22;4926078;28;20216;-89
2023/04/04 03:16:58;;;;;;;2.43;1.67;;;;;;;19.02;49.64;98132.81;4942290;28;20211;-89
2023/04/04 03:19:25;;;;;;;2.00;1.80;;;;;;;19.05;49.14;98149.13;4974406;28;20336;-89
2023/04/04 03:21:52;;;;;;;1.53;1.43;;;;;;;18.99;48.87;98137.78;4938927;28;20255;-89
2023/04/04 03:24:18;;;;;;;1.50;1.40;;;;;;;19.02;49.01;98133.72;4939857;28;20208;-89
2023/04/04 03:26:45;;;;;;;1.73;1.50;;;;;;;18.96;49.17;98122.34;4923058;28;20223;-89
2023/04/04 03:29:11;;;;;;;1.50;1.40;;;;;;;19.03;49.02;98132.91;4953435;28;20207;-90
2023/04/04 03:31:38;;;;;;;3.13;1.77;;;;;;;19.12;49.27;98147.75;4955560;28;20234;-89
2023/04/04 03:34:05;;;;;;;1.67;1.40;;;;;;;19.27;48.97;98172.34;4923427;28;20208;-88
2023/04/04 03:36:31;;;;;;;3.00;1.80;;;;;;;19.23;48.94;98161.88;4965912;28;20230;-89
2023/04/04 03:38:58;;;;;;;1.53;1.43;;;;;;;19.06;49.16;98132.16;4933231;28;20204;-88
2023/04/04 03:41:25;;;;;;;1.83;1.60;;;;;;;19.11;48.92;98151.09;4966851;28;20228;-91
2023/04/04 03:43:51;;;;;;;1.70;1.60;;;;;;;19.03;49.17;98132.91;4957432;28;20222;-91
2023/04/04 03:46:18;;;;;;;1.80;1.50;;;;;;;18.88;49.19;98100.69;4937154;28;20211;-91
2023/04/04 03:48:45;;;;;;;2.07;1.70;;;;;;;19.21;49.04;98153.28;4937938;28;20215;-90
2023/04/04 03:51:11;;;;;;;1.70;1.60;;;;;;;18.78;49.04;98085.78;4907704;28;20270;-90
2023/04/04 03:53:38;;;;;;;1.67;1.50;;;;;;;19.11;49.02;98141.78;4934896;28;20231;-90
2023/04/04 03:56:05;;;;;;;1.90;1.70;;;;;;;18.86;49.18;98100.63;4915601;28;20212;-89
2023/04/04 03:58:34;;;;;;;1.80;1.40;;;;;;;18.23;48.96;97987.16;4961495;28;20296;-90
2023/04/04 04:01:01;;;;;;;2.40;1.73;;;;;;;18.94;48.87;98114.63;4938125;28;20262;-90
2023/04/04 04:03:27;;;;;;;2.90;1.90;;;;;;;18.89;48.67;98100.78;4937075;28;20232;-90
2023/04/04 04:05:54;;;;;;;1.60;1.50;;;;;;;18.83;48.96;98099.63;4966563;28;20672;-91
2023/04/04 04:08:20;;;;;;;3.70;1.60;;;;;;;19.04;49.24;98134.63;4935445;28;20287;-89
2023/04/04 04:10:50;;;;;;;7.60;2.13;;;;;;;19.17;48.97;98157.38;4970274;28;20262;-90
2023/04/04 04:13:17;;;;;;;1.53;1.43;;;;;;;18.92;48.90;98113.66;4926098;28;20704;-89
2023/04/04 04:15:43;;;;;;;3.57;1.70;;;;;;;18.88;48.86;98100.69;4921384;28;20651;-90
2023/04/04 04:18:10;;;;;;;3.73;1.40;;;;;;;18.95;48.80;98115.50;4923850;28;20207;-90
2023/04/04 04:20:37;;;;;;;3.70;1.50;;;;;;;19.15;49.19;98148.78;4942923;28;20287;-90
2023/04/04 04:23:03;;;;;;;4.03;1.83;;;;;;;19.06;49.14;98137.25;4921658;28;20516;-90
2023/04/04 04:25:30;;;;;;;3.50;1.50;;;;;;;18.89;48.73;98107.56;4953087;28;20675;-89
2023/04/04 04:27:56;;;;;;;2.70;1.63;;;;;;;19.15;48.98;98156.41;4969484;28;20253;-88
2023/04/04 04:30:23;;;;;;;2.10;1.60;;;;;;;19.09;48.82;98145.03;4919674;28;20302;-89
2023/04/04 04:32:50;;;;;;;1.50;1.40;;;;;;;19.12;48.80;98151.19;4935671;28;20228;-88
2023/04/04 04:35:16;;;;;;;2.00;1.83;;;;;;;19.10;48.81;98147.66;4941687;28;20286;-89
2023/04/04 04:37:43;;;;;;;6.93;1.80;;;;;;;19.11;49.13;98156.19;4919241;28;20282;-88
2023/04/04 04:40:10;;;;;;;1.67;1.50;;;;;;;19.06;49.07;98143.22;4916745;28;20211;-90
2023/04/04 04:42:36;;;;;;;1.97;1.50;;;;;;;19.21;49.33;98168.56;4918851;29;20228;-89
2023/04/04 04:45:03;;;;;;;1.63;1.53;;;;;;;19.11;49.22;98152.00;4933127;28;20222;-89
2023/04/04 04:47:31;;;;;;;1.67;1.57;;;;;;;19.09;49.18;98153.56;4939739;28;20266;-89
2023/04/04 04:49:58;;;;;;;1.93;1.80;;;;;;;18.99;49.27;98136.09;4929438;28;20204;-89
2023/04/04 04:52:25;;;;;;;2.90;1.80;;;;;;;19.14;49.15;98158.91;4933565;29;20216;-88
2023/04/04 04:54:54;;;;;;;2.63;1.50;;;;;;;19.23;48.98;98177.16;4937159;28;20290;-89
2023/04/04 04:57:21;;;;;;;2.63;1.63;;;;;;;19.14;48.82;98164.00;4970817;28;20290;-90
2023/04/04 04:59:48;;;;;;;2.10;1.40;;;;;;;19.23;49.20;98188.25;4937958;29;20207;-89
2023/04/04 05:02:15;;;;;;;9.30;1.90;;;;;;;19.16;48.85;98183.63;4940430;28;20234;-89
2023/04/04 05:04:44;;;;;;;1.50;1.40;;;;;;;19.06;49.12;98152.53;4945982;28;20671;-89
2023/04/04 05:07:11;;;;;;;2.30;1.60;;;;;;;19.03;48.91;98145.63;4924619;28;20246;-89
2023/04/04 05:09:38;;;;;;;1.90;1.70;;;;;;;19.15;49.05;98169.16;4938986;28;20212;-89
2023/04/04 05:12:05;;;;;;;1.97;1.47;;;;;;;18.99;48.98;98141.19;4971938;28;20248;-89
2023/04/04 05:14:31;;;;;;;1.80;1.57;;;;;;;19.29;49.03;98188.59;4939323;28;20295;-89
2023/04/04 05:16:58;;;;;;;2.73;1.90;;;;;;;18.98;48.35;98141.97;4923874;28;20204;-89
2023/04/04 05:19:25;;;;;;;3.10;1.60;;;;;;;19.28;48.76;98194.50;4939730;28;20294;-89
2023/04/04 05:21:52;;;;;;;3.13;1.63;;;;;;;18.98;48.52;98144.53;4956669;28;20311;-90
2023/04/04 05:24:21;;;;;;;2.37;1.73;;;;;;;19.13;48.15;98180.09;4938855;29;20208;-90
2023/04/04 05:26:48;;;;;;;2.00;1.80;;;;;;;19.22;48.77;98196.66;4940984;28;20243;-89
2023/04/04 05:29:15;;;;;;;1.90;1.53;;;;;;;19.13;49.09;98183.50;4940819;28;20228;-89
2023/04/04 05:31:41;;;;;;;2.30;1.67;;;;;;;19.22;48.82;98193.28;4924533;28;20226;-90
2023/04/04 05:34:08;;;;;;;2.80;2.07;;;;;;;19.20;45.95;98194.88;4974556;28;20266;-89
2023/04/04 05:36:35;;;;;;;3.37;2.20;;;;;;;19.15;44.08;98184.44;4977172;28;20749;-89
2023/04/04 05:39:03;;;;;;;4.83;2.30;;;;;;;18.96;42.93;98148.69;4927933;28;20663;-89
2023/04/04 05:41:30;;;;;;;5.07;2.13;;;;;;;19.06;42.01;98173.81;4944095;28;20226;-89
2023/04/04 05:43:57;;;;;;;3.30;2.37;;;;;;;18.87;40.18;98142.25;4926424;28;20296;-89
2023/04/04 05:46:23;;;;;;;3.60;2.63;;;;;;;19.11;40.81;98189.31;4959823;28;20682;-90
2023/04/04 05:48:50;;;;;;;3.37;2.17;;;;;;;18.94;41.96;98159.59;4944530;28;20618;-89
2023/04/04 05:51:17;;;;;;;3.27;2.20;;;;;;;18.04;42.88;98006.56;4929002;28;20906;-90
2023/04/04 05:53:44;;;;;;;3.37;2.20;;;;;;;18.91;43.63;98154.34;4925367;29;20240;-89
2023/04/04 05:56:11;;;;;;;3.57;2.10;;;;;;;19.02;44.11;98171.91;4958885;28;20626;-89
2023/04/04 05:58:37;;;;;;;4.57;2.30;;;;;;;19.09;44.45;98188.34;4926480;28;20255;-90
2023/04/04 06:01:11;;;;;;;5.17;2.60;;;;;;;18.70;44.55;98128.69;4943859;28;20578;-90
2023/04/04 06:03:37;;;;;;;4.40;2.00;;;;;;;19.00;45.13;98175.16;4976856;28;20285;-90
2023/04/04 06:06:05;;;;;;;3.43;2.40;;;;;;;18.86;45.40;98146.47;4924864;28;20252;-89
2023/04/04 06:08:31;;;;;;;2.57;2.03;;;;;;;18.95;45.58;98161.34;4936606;28;20620;-89
2023/04/04 06:11:15;;;;;;;1.80;1.70;;;;;;;19.09;45.67;98183.25;4930820;28;20622;-90
2023/04/04 06:13:42;;;;;;;2.87;2.00;;;;;;;19.15;45.51;98192.09;4975653;28;20230;-89
2023/04/04 06:16:08;;;;;;;3.17;2.17;;;;;;;19.12;45.93;98188.50;4927984;28;20589;-88
2023/04/04 06:18:35;;;;;;;4.27;2.17;;;;;;;18.94;45.79;98157.91;4928974;28;20586;-88
2023/04/04 06:21:02;;;;;;;3.13;2.10;;;;;;;19.22;46.04;98206.00;4928060;28;20211;-88
2023/04/04 06:23:28;;;;;;;4.40;2.07;;;;;;;19.00;46.00;98165.88;4954353;28;20227;-88
2023/04/04 06:25:55;;;;;;;3.13;1.97;;;;;;;19.00;46.02;98164.97;4929311;28;20230;-88
2023/04/04 06:28:22;;;;;;;2.13;1.90;;;;;;;19.12;46.07;98189.41;4974067;28;20676;-88
2023/04/04 06:30:49;;;;;;;4.47;2.00;;;;;;;19.18;46.81;98199.00;4944585;28;20734;-89
2023/04/04 06:33:16;;;;;;;5.83;2.27;;;;;;;19.00;46.03;98172.63;4938783;28;20219;-88
2023/04/04 06:35:43;;;;;;;6.40;2.80;;;;;;;19.00;39.79;98172.63;4943563;28;20222;-89
2023/04/04 06:38:10;;;;;;;7.63;2.97;;;;;;;19.07;39.01;98184.88;4943887;28;20208;-89
2023/04/04 06:40:36;;;;;;;4.93;2.60;;;;;;;19.09;39.55;98193.44;4927929;28;20204;-89
2023/04/04 06:43:03;;;;;;;3.90;2.70;;;;;;;18.96;40.72;98175.81;4915898;28;20874;-90
2023/04/04 06:45:32;;;;;;;3.00;2.40;;;;;;;19.06;41.41;98194.19;4925842;28;20208;-89
2023/04/04 06:47:59;;;;;;;3.90;2.30;;;;;;;18.99;42.35;98183.63;4940439;28;20215;-89
2023/04/04 06:50:28;;;;;;;5.13;2.53;;;;;;;18.88;42.75;98155.06;4928118;28;20244;-89
2023/04/04 06:52:56;;;;;;;2.87;2.20;;;;;;;18.93;42.68;98166.38;4939798;29;20763;-90
2023/04/04 06:55:22;;;;;;;4.30;2.37;;;;;;;18.90;43.41;98160.25;4952174;28;20270;-90
2023/04/04 06:57:49;;;;;;;4.03;2.37;;;;;;;18.62;43.67;98109.59;4926630;28;20295;-90
2023/04/04 07:00:16;;;;;;;5.10;2.20;;;;;;;18.82;43.66;98144.59;4975956;28;20204;-90
2023/04/04 07:02:42;;;;;;;3.83;2.23;;;;;;;18.90;44.17;98163.66;4943092;28;20247;-90
2023/04/04 07:05:09;;;;;;;2.90;2.23;;;;;;;19.12;44.11;98189.41;4940350;28;20275;-89
2023/04/04 07:07:36;;;;;;;3.67;2.43;;;;;;;19.18;44.45;98204.09;4942580;28;20206;-89
2023/04/04 07:10:02;;;;;;;3.23;2.50;;;;;;;19.01;44.73;98169.28;4940195;28;20212;-90
2023/04/04 07:12:30;;;;;;;2.83;2.23;;;;;;;19.01;44.61;98175.25;4923014;29;20224;-89
2023/04/04 07:14:57;;;;;;;2.10;1.90;;;;;;;18.72;44.53;98114.38;4931802;28;20258;-89
2023/04/04 07:17:24;;;;;;;2.37;1.97;;;;;;;18.60;44.80;98106.13;4972931;28;20212;-89
2023/04/04 07:19:51;;;;;;;4.90;2.23;;;;;;;18.61;44.89;98102.78;4939183;28;20203;-90
2023/04/04 07:22:17;;;;;;;6.43;2.50;;;;;;;19.09;45.08;98181.59;4926746;28;20228;-88
2023/04/04 07:24:44;;;;;;;2.87;1.90;;;;;;;18.89;44.76;98154.25;4926506;28;20223;-89
2023/04/04 07:27:14;;;;;;;2.70;2.17;;;;;;;19.22;45.11;98203.47;4923778;28;20207;-88
2023/04/04 07:29:40;;;;;;;4.20;2.40;;;;;;;18.92;44.90;98151.00;4951586;28;20207;-90
2023/04/04 07:32:07;;;;;;;2.33;2.00;;;;;;;19.11;45.31;98189.31;4954053;28;20297;-89
2023/04/04 07:34:34;;;;;;;3.30;2.07;;;;;;;18.87;45.68;98152.44;4941528;28;20204;-89
2023/04/04 07:37:00;;;;;;;4.80;2.10;;;;;;;19.06;45.53;98189.09;4935306;28;20214;-88
2023/04/04 07:39:27;;;;;;;4.67;2.17;;;;;;;19.01;45.50;98175.25;4923428;29;20272;-90
2023/04/04 07:41:53;;;;;;;2.60;2.10;;;;;;;18.96;45.71;98166.53;4970733;28;20228;-89
2023/04/04 07:44:20;;;;;;;2.77;1.87;;;;;;;18.95;45.55;98164.75;4955014;28;20223;-90
2023/04/04 07:46:47;;;;;;;3.93;2.23;;;;;;;19.07;45.74;98177.25;4934787;28;20271;-89
2023/04/04 07:49:32;;;;;;;3.80;2.20;;;;;;;18.88;45.67;98149.97;4928010;28;20207;-90
2023/04/04 07:51:58;;;;;;;2.93;2.10;;;;;;;18.97;46.32;98169.91;4920873;28;20228;-89
2023/04/04 07:54:26;;;;;;;2.07;1.87;;;;;;;19.04;46.16;98179.63;4957134;28;20294;-89
2023/04/04 07:56:52;;;;;;;2.07;1.87;;;;;;;19.14;46.27;98198.00;4975092;28;20203;-90
2023/04/04 07:59:19;;;;;;;2.30;2.10;;;;;;;19.25;45.91;98211.25;4950418;28;20213;-90
2023/04/04 08:01:46;;;;;;;2.57;1.90;;;;;;;19.08;46.12;98178.97;4986763;28;20299;-91
2023/04/04 08:04:12;;;;;;;5.30;2.27;;;;;;;18.92;46.32;98153.56;4945352;28;20226;-90
2023/04/04 08:06:39;;;;;;;2.30;2.00;;;;;;;18.83;46.05;98143.78;4947453;28;20210;-90
2023/04/04 08:09:05;;;;;;;3.30;1.80;;;;;;;19.01;46.12;98167.59;4943103;28;20207;-90
2023/04/04 08:11:32;;;;;;;2.53;2.10;;;;;;;18.69;46.27;98110.78;4990580;28;20180;-92
2023/04/04 08:13:58;;;;;;;3.37;1.80;;;;;;;19.10;46.33;98179.94;4980233;28;20218;-94
2023/04/04 08:16:25;;;;;;;2.53;1.83;;;;;;;18.79;46.74;98131.69;4947953;28;20204;-91
2023/04/04 08:18:52;;;;;;;2.53;1.80;;;;;;;18.86;46.77;98137.97;4937347;28;20639;-92
2023/04/04 08:21:18;;;;;;;2.53;1.87;;;;;;;18.36;46.17;98048.91;4961137;28;20207;-90
2023/04/04 08:23:45;;;;;;;2.43;2.00;;;;;;;19.00;46.38;98158.22;4961955;28;20230;-90
2023/04/04 08:26:12;;;;;;;2.70;2.00;;;;;;;19.16;46.26;98177.69;4923327;28;20295;-91
2023/04/04 08:28:38;;;;;;;2.67;1.90;;;;;;;18.74;46.64;98109.38;4978115;28;20204;-90
2023/04/04 08:31:05;;;;;;;3.37;1.80;;;;;;;18.81;46.04;98104.66;4952943;28;20208;-89
2023/04/04 08:33:32;;;;;;;2.20;1.97;;;;;;;18.92;46.31;98146.78;4962591;28;20220;-92
2023/04/04 08:36:12;;;;;;;2.13;1.93;;;;;;;18.91;46.44;98128.88;4943482;28;20667;-89
2023/04/04 08:38:39;;;;;;;3.77;1.90;;;;;;;18.91;46.95;98133.97;4954441;28;20671;-88
2023/04/04 08:41:06;;;;;;;4.33;2.00;;;;;;;19.06;46.85;98158.53;4942584;28;20235;-89
2023/04/04 08:43:33;;;;;;;2.57;2.03;;;;;;;18.83;46.57;98120.00;4957576;28;20219;-89
2023/04/04 08:45:59;;;;;;;2.00;1.70;;;;;;;19.14;46.53;98175.06;4942250;28;20265;-89
2023/04/04 08:48:28;;;;;;;2.23;2.00;;;;;;;18.16;46.89;98014.81;4920005;28;20207;-89
2023/04/04 08:50:58;;;;;;;2.37;1.77;;;;;;;19.22;46.62;98189.03;4942340;28;20293;-89
2023/04/04 08:53:25;;;;;;;1.93;1.80;;;;;;;19.27;46.70;98204.63;4924618;28;20315;-88
2023/04/04 08:55:53;;;;;;;2.30;1.83;;;;;;;18.79;46.75;98120.63;4938203;28;20211;-89
2023/04/04 08:58:20;;;;;;;1.70;1.60;;;;;;;19.02;46.45;98151.53;4939287;28;20682;-89
2023/04/04 09:00:46;;;;;;;2.93;1.87;;;;;;;19.05;46.91;98166.97;4957776;28;20250;-90
2023/04/04 09:03:29;;;;;;;2.90;1.80;;;;;;;18.70;47.03;98103.22;4923393;28;20230;-89
2023/04/04 09:05:56;;;;;;;2.83;1.83;;;;;;;19.14;47.25;98171.63;4942927;28;20655;-89
2023/04/04 09:08:23;;;;;;;2.07;1.77;;;;;;;19.13;46.96;98168.19;4926597;28;20775;-89
2023/04/04 09:10:51;;;;;;;1.90;1.70;;;;;;;19.14;47.20;98190.34;4930419;28;20203;-92
2023/04/04 09:13:18;;;;;;;2.07;1.83;;;;;;;18.67;47.26;98102.19;4967973;28;20207;-94
2023/04/04 09:18:26;;;;;;;2.60;1.80;;;;;;;19.13;46.63;98180.09;5017729;23;20298;-89
2023/04/04 09:20:53;;;;;;;1.90;1.80;;;;;;;18.92;47.32;98153.56;4964279;28;20202;-89
2023/04/04 09:23:20;;;;;;;1.83;1.70;;;;;;;19.04;47.26;98169.44;4941531;28;20230;-88
2023/04/04 09:25:47;;;;;;;2.63;2.00;;;;;;;19.16;47.23;98185.34;4948088;28;20224;-91
2023/04/04 09:28:29;;;;;;;2.07;1.87;;;;;;;18.91;47.47;98144.16;4953918;28;20237;-88
2023/04/04 09:30:55;;;;;;;2.20;2.00;;;;;;;19.17;47.20;98187.06;4937905;28;20234;-87
2023/04/04 09:33:25;;;;;;;1.90;1.70;;;;;;;19.10;47.41;98178.25;4941601;28;20254;-88
2023/04/04 09:35:57;;;;;;;3.20;1.73;;;;;;;19.12;46.75;98176.66;4933318;29;20580;-89
2023/04/04 09:38:25;;;;;;;1.93;1.53;;;;;;;19.07;46.65;98161.94;4977666;28;20207;-89
2023/04/04 09:40:52;;;;;;;9.83;2.10;;;;;;;19.28;47.05;98198.69;4941036;28;20199;-89
2023/04/04 09:43:21;;;;;;;4.57;2.33;;;;;;;19.13;46.99;98172.44;4958804;28;20231;-89
2023/04/04 09:45:47;;;;;;;3.20;2.07;;;;;;;19.22;46.65;98186.47;4937688;29;20212;-88
2023/04/04 09:48:34;;;;;;;4.70;2.30;;;;;;;19.17;46.76;98187.06;4928669;28;20648;-88
2023/04/04 09:51:03;;;;;;;6.37;2.00;;;;;;;19.12;47.14;98179.19;4954728;28;20753;-88
2023/04/04 09:53:32;;;;;;;2.63;2.10;;;;;;;19.23;47.21;98188.25;4949248;28;20218;-90
2023/04/04 09:55:59;;;;;;;4.20;1.83;;;;;;;19.07;47.03;98173.00;4936789;28;20296;-89
2023/04/04 09:58:26;;;;;;;4.80;2.40;;;;;;;19.04;44.00;98165.19;4940473;28;20212;-90
2023/04/04 10:00:55;;;;;;;4.57;2.43;;;;;;;18.99;43.34;98161.56;4987560;28;20199;-90
2023/04/04 10:03:22;;;;;;;2.40;2.20;;;;;;;19.04;44.21;98165.19;4940190;28;20267;-91
2023/04/04 10:05:57;;;;;;;5.20;2.50;;;;;;;19.26;44.71;98208.78;4941144;28;20218;-89
2023/04/04 10:08:24;;;;;;;5.60;2.70;;;;;;;19.26;44.65;98195.16;4957752;28;20207;-90
2023/04/04 10:10:51;;;;;;;3.93;2.30;;;;;;;18.85;45.09;98134.53;4928528;29;20672;-90
2023/04/04 10:13:35;;;;;;;4.97;2.27;;;;;;;18.70;45.18;98108.31;4954967;28;20223;-89
2023/04/04 10:16:03;;;;;;;3.03;2.33;;;;;;;19.07;45.52;98172.13;4975605;28;20632;-90
2023/04/04 10:18:31;;;;;;;3.80;2.07;;;;;;;19.06;45.63;98158.53;4938352;28;20665;-90
2023/04/04 10:20:58;;;;;;;2.50;2.20;;;;;;;19.25;45.62;98193.44;4929762;29;20200;-90
2023/04/04 10:23:40;;;;;;;3.97;2.07;;;;;;;18.86;46.03;98137.97;4929393;28;20223;-90
2023/04/04 10:26:10;;;;;;;3.87;2.07;;;;;;;19.06;46.33;98155.97;4970141;28;20207;-90
2023/04/04 10:28:37;;;;;;;2.57;2.27;;;;;;;19.08;46.09;98172.22;4916858;29;20263;-89
2023/04/04 10:31:26;;;;;;;5.40;1.90;;;;;;;19.04;46.36;98151.63;4957855;28;20639;-90
2023/04/04 10:34:11;;;;;;;1.70;1.60;;;;;;;19.24;46.51;98189.09;4940947;28;20203;-90
2023/04/04 10:37:08;;;;;;;5.93;2.33;;;;;;;19.24;46.68;98168.72;4981292;28;20203;-90
2023/04/04 10:39:49;;;;;;;2.30;1.93;;;;;;;19.23;46.88;98190.81;4937490;28;20203;-90
2023/04/04 10:42:16;;;;;;;4.03;2.20;;;;;;;18.92;46.64;98144.22;4932986;28;20223;-90
2023/04/04 10:44:42;;;;;;;2.83;2.03;;;;;;;19.15;46.74;98186.09;4934895;28;20220;-90
2023/04/04 10:47:13;;;;;;;2.33;2.00;;;;;;;19.23;46.86;98190.81;4946405;28;20201;-90
2023/04/04 10:49:45;;;;;;;2.20;1.70;;;;;;;18.95;46.80;98146.91;4960591;28;20227;-90
2023/04/04 10:52:13;;;;;;;2.37;2.00;;;;;;;19.11;46.88;98169.81;4930768;28;20227;-89
2023/04/04 10:54:40;;;;;;;2.50;1.93;;;;;;;19.18;46.73;98178.63;4943579;28;20201;-90
2023/04/04 10:57:07;;;;;;;2.73;2.20;;;;;;;18.93;46.71;98133.25;4947084;28;20232;-90
2023/04/04 10:59:33;;;;;;;2.00;1.80;;;;;;;19.01;46.63;98148.91;4933726;28;20261;-90
2023/04/04 11:02:01;;;;;;;2.30;2.00;;;;;;;19.06;47.13;98176.34;4944763;28;20234;-90
2023/04/04 11:04:33;;;;;;;1.90;1.70;;;;;;;19.13;47.05;98165.66;4942147;28;20273;-90
2023/04/04 11:07:08;;;;;;;2.10;1.90;;;;;;;18.95;47.23;98131.63;4957804;28;20206;-90
2023/04/04 11:09:55;;;;;;;2.10;1.90;;;;;;;19.07;47.12;98156.84;4934961;28;20269;-90
2023/04/04 11:12:32;;;;;;;2.00;1.80;;;;;;;19.25;47.08;98180.69;4926333;28;20651;-90
2023/04/04 11:14:59;;;;;;;1.80;1.70;;;;;;;19.25;47.20;98170.50;4974241;28;20269;-90
2023/04/04 11:17:47;;;;;;;2.73;2.13;;;;;;;19.24;47.16;98174.69;4967768;28;20303;-90
2023/04/04 11:20:16;;;;;;;2.00;1.67;;;;;;;18.97;47.10;98127.50;4970306;28;20203;-90
2023/04/04 11:22:44;;;;;;;1.90;1.80;;;;;;;19.00;47.31;98134.41;4930465;28;20225;-90
2023/04/04 11:25:29;;;;;;;3.23;1.97;;;;;;;19.25;47.21;98183.22;4934199;28;20206;-90
2023/04/04 11:27:59;;;;;;;2.17;1.90;;;;;;;19.04;47.21;98141.44;4973169;28;20291;-90
2023/04/04 11:30:27;;;;;;;2.10;1.90;;;;;;;18.86;47.40;98097.22;4943910;28;20691;-90
2023/04/04 11:32:58;;;;;;;3.10;1.90;;;;;;;18.92;47.34;98112.81;4941765;28;20269;-90
2023/04/04 11:35:33;;;;;;;3.80;2.13;;;;;;;19.25;47.39;98157.75;4942489;28;20223;-90
2023/04/04 11:38:00;;;;;;;1.73;1.60;;;;;;;18.88;47.33;98101.59;4953041;28;20257;-90
2023/04/04 11:40:38;;;;;;;1.80;1.63;;;;;;;19.25;47.43;98165.41;4926331;28;20643;-90